createdAt,value
2022-08-19T00:00:12.393Z,23.60
2022-08-19T00:03:00.166Z,23.60
2022-08-19T00:05:28.034Z,23.60
2022-08-19T00:07:55.898Z,23.60
2022-08-19T00:10:25.512Z,23.50
2022-08-19T00:12:53.862Z,23.50
2022-08-19T00:15:23.013Z,23.50
2022-08-19T00:17:50.926Z,23.50
2022-08-19T00:20:22.400Z,23.50
2022-08-19T00:22:50.799Z,23.50
2022-08-19T00:25:19.320Z,23.40
2022-08-19T00:27:59.939Z,23.40
2022-08-19T00:30:30.564Z,23.40
2022-08-19T00:32:58.957Z,23.40
2022-08-19T00:35:28.235Z,23.40
2022-08-19T00:37:57.134Z,23.38
2022-08-19T00:40:26.105Z,23.30
2022-08-19T00:42:54.888Z,23.30
2022-08-19T00:45:27.179Z,23.30
2022-08-19T00:47:54.981Z,23.30
2022-08-19T00:50:23.081Z,23.20
2022-08-19T00:52:52.451Z,23.20
2022-08-19T00:55:26.861Z,23.20
2022-08-19T00:58:04.677Z,23.20
2022-08-19T01:00:37.590Z,23.18
2022-08-19T01:03:13.160Z,23.10
2022-08-19T01:05:44.872Z,23.12
2022-08-19T01:08:14.661Z,23.10
2022-08-19T01:10:51.796Z,23.10
2022-08-19T01:13:23.683Z,23.10
2022-08-19T01:15:57.475Z,23.10
2022-08-19T01:18:27.509Z,23.10
2022-08-19T01:20:59.020Z,23.10
2022-08-19T01:23:43.480Z,23.10
2022-08-19T01:26:19.521Z,23.10
2022-08-19T01:28:50.645Z,23.00
2022-08-19T01:31:27.980Z,23.00
2022-08-19T01:33:58.403Z,23.00
2022-08-19T01:36:36.712Z,23.00
2022-08-19T01:39:11.669Z,23.00
2022-08-19T01:41:40.018Z,22.90
2022-08-19T01:44:18.528Z,22.90
2022-08-19T01:46:49.403Z,22.90
2022-08-19T01:49:21.978Z,22.90
2022-08-19T01:51:51.299Z,22.80
2022-08-19T01:54:23.238Z,22.80
2022-08-19T01:57:06.093Z,22.80
2022-08-19T01:59:37.477Z,22.80
2022-08-19T02:02:09.443Z,22.80
2022-08-19T02:04:41.511Z,22.80
2022-08-19T02:07:09.782Z,22.74
2022-08-19T02:09:37.738Z,22.70
2022-08-19T02:12:09.236Z,22.70
2022-08-19T02:14:37.958Z,22.70
2022-08-19T02:17:05.835Z,22.70
2022-08-19T02:19:34.067Z,22.70
2022-08-19T02:22:01.895Z,22.64
2022-08-19T02:24:29.713Z,22.60
2022-08-19T02:26:58.324Z,22.58
2022-08-19T02:29:26.240Z,22.50
2022-08-19T02:31:54.193Z,22.50
2022-08-19T02:34:22.653Z,22.50
2022-08-19T02:36:51.829Z,22.48
2022-08-19T02:39:20.507Z,22.40
2022-08-19T02:41:48.327Z,22.40
2022-08-19T02:44:29.497Z,22.30
2022-08-19T02:47:00.364Z,22.30
2022-08-19T02:49:28.283Z,22.30
2022-08-19T02:51:56.062Z,22.22
2022-08-19T02:54:24.100Z,22.20
2022-08-19T02:56:52.442Z,22.20
2022-08-19T02:59:22.909Z,22.20
2022-08-19T03:01:51.114Z,22.20
2022-08-19T03:04:20.530Z,22.20
2022-08-19T03:06:49.168Z,22.20
2022-08-19T03:09:19.541Z,22.20
2022-08-19T03:11:48.706Z,22.20
2022-08-19T03:14:20.587Z,22.20
2022-08-19T03:16:52.648Z,22.20
2022-08-19T03:19:22.405Z,22.10
2022-08-19T03:21:52.140Z,22.10
2022-08-19T03:24:21.187Z,22.10
2022-08-19T03:26:53.325Z,22.10
2022-08-19T03:29:30.209Z,22.10
2022-08-19T03:32:05.693Z,22.10
2022-08-19T03:34:38.531Z,22.10
2022-08-19T03:37:15.147Z,22.10
2022-08-19T03:39:43.282Z,22.10
2022-08-19T03:42:32.708Z,22.10
2022-08-19T03:44:59.577Z,22.10
2022-08-19T03:47:27.329Z,22.10
2022-08-19T03:49:55.654Z,22.10
2022-08-19T03:52:23.465Z,22.10
2022-08-19T03:54:51.341Z,22.02
2022-08-19T03:57:19.065Z,22.08
2022-08-19T03:59:46.822Z,22.04
2022-08-19T04:02:14.771Z,22.10
2022-08-19T04:04:44.882Z,22.10
2022-08-19T04:07:17.046Z,22.10
2022-08-19T04:09:45.222Z,22.20
2022-08-19T04:12:12.943Z,22.20
2022-08-19T04:14:40.880Z,22.20
2022-08-19T04:17:08.722Z,22.20
2022-08-19T04:19:37.533Z,22.28
2022-08-19T04:22:05.990Z,22.30
2022-08-19T04:24:35.993Z,22.30
2022-08-19T04:27:06.436Z,22.40
2022-08-19T04:29:35.044Z,22.44
2022-08-19T04:32:08.926Z,22.50
2022-08-19T04:35:01.533Z,22.60
2022-08-19T04:37:31.838Z,22.70
2022-08-19T04:40:25.704Z,22.80
2022-08-19T04:42:54.515Z,22.90
2022-08-19T04:45:23.240Z,22.90
2022-08-19T04:47:58.744Z,23.00
2022-08-19T04:50:46.267Z,23.10
2022-08-19T04:53:14.069Z,23.18
2022-08-19T04:55:43.607Z,23.20
2022-08-19T04:58:11.418Z,23.30
2022-08-19T05:00:41.003Z,23.30
2022-08-19T05:03:09.114Z,23.40
2022-08-19T05:05:44.758Z,23.40
2022-08-19T05:08:30.913Z,23.46
2022-08-19T05:10:59.560Z,23.50
2022-08-19T05:13:28.015Z,23.50
2022-08-19T05:15:58.801Z,23.46
2022-08-19T05:18:45.717Z,23.50
2022-08-19T05:21:35.995Z,23.50
2022-08-19T05:24:09.453Z,23.50
2022-08-19T05:26:39.798Z,23.50
2022-08-19T05:29:09.517Z,23.60
2022-08-19T05:31:41.853Z,23.58
2022-08-19T05:34:18.330Z,23.60
2022-08-19T05:36:51.516Z,23.60
2022-08-19T05:39:21.827Z,23.70
2022-08-19T05:41:55.651Z,23.70
2022-08-19T05:44:26.361Z,23.80
2022-08-19T05:46:54.538Z,23.80
2022-08-19T05:49:24.332Z,23.82
2022-08-19T05:51:52.687Z,23.90
2022-08-19T05:54:20.932Z,23.90
2022-08-19T05:56:49.053Z,23.90
2022-08-19T05:59:18.384Z,24.00
2022-08-19T06:01:51.441Z,24.00
2022-08-19T06:04:21.613Z,24.10
2022-08-19T06:06:54.778Z,24.20
2022-08-19T06:09:23.413Z,24.68
2022-08-19T06:12:00.416Z,25.34
2022-08-19T06:14:32.524Z,25.40
2022-08-19T06:17:06.866Z,25.30
2022-08-19T06:19:40.908Z,25.20
2022-08-19T06:22:09.101Z,25.10
2022-08-19T06:24:36.860Z,25.00
2022-08-19T06:27:06.681Z,25.00
2022-08-19T06:29:36.049Z,24.90
2022-08-19T06:32:04.731Z,24.88
2022-08-19T06:34:35.412Z,24.90
2022-08-19T06:37:04.289Z,24.90
2022-08-19T06:39:36.742Z,24.90
2022-08-19T06:42:11.000Z,24.90
2022-08-19T06:44:47.996Z,24.98
2022-08-19T06:47:25.219Z,25.00
2022-08-19T06:50:03.545Z,25.00
2022-08-19T06:52:36.484Z,25.00
2022-08-19T06:55:06.807Z,25.06
2022-08-19T06:57:35.441Z,25.24
2022-08-19T07:00:07.199Z,25.86
2022-08-19T07:02:38.593Z,26.50
2022-08-19T07:05:07.359Z,26.70
2022-08-19T07:07:35.856Z,26.70
2022-08-19T07:10:07.700Z,26.62
2022-08-19T07:12:38.078Z,26.50
2022-08-19T07:15:09.646Z,26.50
2022-08-19T07:17:41.851Z,26.60
2022-08-19T07:20:11.540Z,26.70
2022-08-19T07:22:40.285Z,26.70
2022-08-19T07:25:10.214Z,26.80
2022-08-19T07:27:39.759Z,26.80
2022-08-19T07:30:12.202Z,26.80
2022-08-19T07:32:41.700Z,26.82
2022-08-19T07:35:10.850Z,26.90
2022-08-19T07:37:39.370Z,26.94
2022-08-19T07:40:08.824Z,27.00
2022-08-19T07:42:37.498Z,27.10
2022-08-19T07:45:07.707Z,27.12
2022-08-19T07:47:47.930Z,27.20
2022-08-19T07:50:20.916Z,27.20
2022-08-19T07:52:50.815Z,27.30
2022-08-19T07:55:40.228Z,27.40
2022-08-19T07:58:17.006Z,27.48
2022-08-19T08:00:47.881Z,27.50
2022-08-19T08:03:18.925Z,27.60
2022-08-19T08:06:16.850Z,27.60
2022-08-19T08:09:03.440Z,27.70
2022-08-19T08:11:34.777Z,27.70
2022-08-19T08:14:05.969Z,27.70
2022-08-19T08:16:39.546Z,27.72
2022-08-19T08:19:20.505Z,27.80
2022-08-19T08:22:00.378Z,27.80
2022-08-19T08:24:34.804Z,27.78
2022-08-19T08:27:04.717Z,27.70
2022-08-19T08:29:41.318Z,27.80
2022-08-19T08:32:13.946Z,27.76
2022-08-19T08:34:43.646Z,27.80
2022-08-19T08:37:11.677Z,27.88
2022-08-19T08:39:39.471Z,27.90
2022-08-19T08:42:27.218Z,28.00
2022-08-19T08:45:06.668Z,28.10
2022-08-19T08:47:39.152Z,28.20
2022-08-19T08:50:31.151Z,28.30
2022-08-19T08:52:59.755Z,28.32
2022-08-19T08:55:37.098Z,28.40
2022-08-19T08:58:15.021Z,28.50
2022-08-19T09:00:47.702Z,28.60
2022-08-19T09:03:31.491Z,28.70
2022-08-19T09:06:36.718Z,28.80
2022-08-19T09:09:16.770Z,28.90
2022-08-19T09:12:06.804Z,28.90
2022-08-19T09:14:51.509Z,29.00
2022-08-19T09:17:32.163Z,29.10
2022-08-19T09:20:19.471Z,29.10
2022-08-19T09:22:47.638Z,29.10
2022-08-19T09:25:26.641Z,29.20
2022-08-19T09:28:02.673Z,29.30
2022-08-19T09:30:40.660Z,29.40
2022-08-19T09:33:08.713Z,29.40
2022-08-19T09:35:53.165Z,29.50
2022-08-19T09:38:22.687Z,29.50
2022-08-19T09:40:51.044Z,29.58
2022-08-19T09:43:27.775Z,29.60
2022-08-19T09:46:03.200Z,29.60
2022-08-19T09:48:31.030Z,29.60
2022-08-19T09:51:16.417Z,29.70
2022-08-19T09:53:46.451Z,29.78
2022-08-19T09:56:15.010Z,29.88
2022-08-19T09:58:42.816Z,29.90
2022-08-19T10:01:16.410Z,30.00
2022-08-19T10:03:44.273Z,30.10
2022-08-19T10:06:15.093Z,30.10
2022-08-19T10:08:50.244Z,30.20
2022-08-19T10:11:28.386Z,30.20
2022-08-19T10:14:08.133Z,30.28
2022-08-19T10:16:39.580Z,30.30
2022-08-19T10:19:07.634Z,30.30
2022-08-19T10:21:35.527Z,30.30
2022-08-19T10:24:06.434Z,30.30
2022-08-19T10:26:38.978Z,30.30
2022-08-19T10:29:09.255Z,30.30
2022-08-19T10:32:01.491Z,30.40
2022-08-19T10:34:28.221Z,30.40
2022-08-19T10:37:01.266Z,30.50
2022-08-19T10:39:43.061Z,30.50
2022-08-19T10:42:13.923Z,30.60
2022-08-19T10:44:42.699Z,30.70
2022-08-19T10:47:17.496Z,30.70
2022-08-19T10:50:14.042Z,30.80
2022-08-19T10:52:49.973Z,30.90
2022-08-19T10:55:47.670Z,30.90
2022-08-19T10:58:23.108Z,31.00
2022-08-19T11:00:57.619Z,31.00
2022-08-19T11:03:28.889Z,31.10
2022-08-19T11:06:02.989Z,31.10
2022-08-19T11:08:32.084Z,31.20
2022-08-19T11:11:03.834Z,31.30
2022-08-19T11:13:35.388Z,31.40
2022-08-19T11:16:12.025Z,31.40
2022-08-19T11:18:47.657Z,31.40
2022-08-19T11:21:24.175Z,31.50
2022-08-19T11:23:56.493Z,31.50
2022-08-19T11:26:26.757Z,31.50
2022-08-19T11:28:55.489Z,31.60
2022-08-19T11:31:29.687Z,31.60
2022-08-19T11:34:04.391Z,31.70
2022-08-19T11:36:35.645Z,31.70
2022-08-19T11:39:05.795Z,31.70
2022-08-19T11:41:33.797Z,31.80
2022-08-19T11:44:03.750Z,31.90
2022-08-19T11:46:32.584Z,31.90
2022-08-19T11:49:01.738Z,31.90
2022-08-19T11:51:31.557Z,32.00
2022-08-19T11:54:00.937Z,31.98
2022-08-19T11:56:29.294Z,32.00
2022-08-19T11:58:57.890Z,32.10
2022-08-19T12:01:27.413Z,32.10
2022-08-19T12:03:57.697Z,32.10
2022-08-19T12:06:30.703Z,32.10
2022-08-19T12:09:06.955Z,32.12
2022-08-19T12:11:34.934Z,32.20
2022-08-19T12:14:02.843Z,32.30
2022-08-19T12:16:33.617Z,32.34
2022-08-19T12:19:05.121Z,32.40
2022-08-19T12:21:36.790Z,32.50
2022-08-19T12:24:07.113Z,32.58
2022-08-19T12:26:35.915Z,32.70
2022-08-19T12:29:24.034Z,32.80
2022-08-19T12:31:52.465Z,32.90
2022-08-19T12:34:21.261Z,33.00
2022-08-19T12:36:50.560Z,33.00
2022-08-19T12:39:18.998Z,33.10
2022-08-19T12:41:51.530Z,33.20
2022-08-19T12:44:29.616Z,33.30
2022-08-19T12:47:00.923Z,33.30
2022-08-19T12:49:54.093Z,33.30
2022-08-19T12:52:23.232Z,33.38
2022-08-19T12:54:55.488Z,33.40
2022-08-19T12:57:32.830Z,33.40
2022-08-19T13:00:13.524Z,33.44
2022-08-19T13:02:45.499Z,33.50
2022-08-19T13:05:20.827Z,33.56
2022-08-19T13:07:49.066Z,33.60
2022-08-19T13:10:20.703Z,33.70
2022-08-19T13:12:51.194Z,33.82
2022-08-19T13:15:24.345Z,34.00
2022-08-19T13:17:54.810Z,34.06
2022-08-19T13:20:23.400Z,34.10
2022-08-19T13:22:51.659Z,34.24
2022-08-19T13:25:20.703Z,34.30
2022-08-19T13:27:50.280Z,34.38
2022-08-19T13:30:39.245Z,34.40
2022-08-19T13:33:17.203Z,34.40
2022-08-19T13:35:58.374Z,34.40
2022-08-19T13:38:26.340Z,34.50
2022-08-19T13:40:56.762Z,34.56
2022-08-19T13:43:27.742Z,34.50
2022-08-19T13:45:57.409Z,34.60
2022-08-19T13:48:28.029Z,34.74
2022-08-19T13:50:56.212Z,34.98
2022-08-19T13:53:24.613Z,35.26
2022-08-19T13:55:54.596Z,35.98
2022-08-19T13:58:23.543Z,37.06
2022-08-19T14:00:51.561Z,38.00
2022-08-19T14:03:19.623Z,38.74
2022-08-19T14:05:47.741Z,39.76
2022-08-19T14:08:16.111Z,40.68
2022-08-19T14:10:45.719Z,41.48
2022-08-19T14:13:21.652Z,42.02
2022-08-19T14:15:50.638Z,42.50
2022-08-19T14:18:19.847Z,43.26
2022-08-19T14:20:47.825Z,43.74
2022-08-19T14:23:16.244Z,44.02
2022-08-19T14:25:45.376Z,44.60
2022-08-19T14:28:13.231Z,44.96
2022-08-19T14:30:41.001Z,45.26
2022-08-19T14:33:09.539Z,45.08
2022-08-19T14:35:38.493Z,44.02
2022-08-19T14:38:16.599Z,42.82
2022-08-19T14:40:44.959Z,41.58
2022-08-19T14:43:13.015Z,40.62
2022-08-19T14:45:41.757Z,39.70
2022-08-19T14:48:12.441Z,38.86
2022-08-19T14:50:47.515Z,38.10
2022-08-19T14:53:17.012Z,37.50
2022-08-19T14:55:47.478Z,36.98
2022-08-19T14:58:28.305Z,36.40
2022-08-19T15:00:58.141Z,36.08
2022-08-19T15:03:27.291Z,35.70
2022-08-19T15:05:57.509Z,35.30
2022-08-19T15:08:26.471Z,34.90
2022-08-19T15:10:55.034Z,34.60
2022-08-19T15:13:25.633Z,34.48
2022-08-19T15:15:53.977Z,34.30
2022-08-19T15:18:22.875Z,34.20
2022-08-19T15:20:51.923Z,34.10
2022-08-19T15:23:21.876Z,33.84
2022-08-19T15:25:54.446Z,33.70
2022-08-19T15:28:24.164Z,33.50
2022-08-19T15:30:53.107Z,33.40
2022-08-19T15:33:21.359Z,33.30
2022-08-19T15:35:51.624Z,33.12
2022-08-19T15:38:22.236Z,33.00
2022-08-19T15:40:51.031Z,32.90
2022-08-19T15:43:23.869Z,32.70
2022-08-19T15:45:51.851Z,32.60
2022-08-19T15:48:19.630Z,32.50
2022-08-19T15:50:47.427Z,32.30
2022-08-19T15:53:16.142Z,32.20
2022-08-19T15:55:45.957Z,32.10
2022-08-19T15:58:33.651Z,32.00
2022-08-19T16:01:27.031Z,31.96
2022-08-19T16:04:16.427Z,31.82
2022-08-19T16:06:51.479Z,31.70
2022-08-19T16:09:27.285Z,31.60
2022-08-19T16:12:03.979Z,31.54
2022-08-19T16:14:35.313Z,31.50
2022-08-19T16:17:03.792Z,31.40
2022-08-19T16:19:32.458Z,31.30
2022-08-19T16:22:00.473Z,31.30
2022-08-19T16:24:28.897Z,31.20
2022-08-19T16:26:57.245Z,31.20
2022-08-19T16:29:33.535Z,31.10
2022-08-19T16:32:10.261Z,31.00
2022-08-19T16:34:41.350Z,31.00
2022-08-19T16:37:10.371Z,30.90
2022-08-19T16:39:39.542Z,30.90
2022-08-19T16:42:09.366Z,30.84
2022-08-19T16:44:43.308Z,30.80
2022-08-19T16:47:13.324Z,30.74
2022-08-19T16:49:52.869Z,30.66
2022-08-19T16:52:26.987Z,30.60
2022-08-19T16:54:55.049Z,30.50
2022-08-19T16:57:23.961Z,30.40
2022-08-19T16:59:52.442Z,30.30
2022-08-19T17:02:23.314Z,30.30
2022-08-19T17:04:57.713Z,30.20
2022-08-19T17:07:29.407Z,30.20
2022-08-19T17:10:05.070Z,30.10
2022-08-19T17:12:33.196Z,30.00
2022-08-19T17:15:02.776Z,29.90
2022-08-19T17:17:31.716Z,29.86
2022-08-19T17:20:02.696Z,29.80
2022-08-19T17:22:30.623Z,29.70
2022-08-19T17:24:58.690Z,29.60
2022-08-19T17:27:31.511Z,29.56
2022-08-19T17:30:02.978Z,29.50
2022-08-19T17:32:34.359Z,29.40
2022-08-19T17:35:04.077Z,29.30
2022-08-19T17:37:33.255Z,29.30
2022-08-19T17:40:06.268Z,29.20
2022-08-19T17:42:35.928Z,29.18
2022-08-19T17:45:05.439Z,29.10
2022-08-19T17:47:33.455Z,29.06
2022-08-19T17:50:01.655Z,29.00
2022-08-19T17:52:29.408Z,28.90
2022-08-19T17:54:57.268Z,28.80
2022-08-19T17:57:25.943Z,28.70
2022-08-19T17:59:53.989Z,28.70
2022-08-19T18:02:23.327Z,28.60
2022-08-19T18:04:51.568Z,28.60
2022-08-19T18:07:21.832Z,28.50
2022-08-19T18:09:52.779Z,28.50
2022-08-19T18:12:26.946Z,28.40
2022-08-19T18:14:55.189Z,28.40
2022-08-19T18:17:24.443Z,28.30
2022-08-19T18:19:52.275Z,28.30
2022-08-19T18:22:35.488Z,28.20
2022-08-19T18:25:12.298Z,28.20
2022-08-19T18:27:40.262Z,28.30
2022-08-19T18:30:10.460Z,28.40
2022-08-19T18:32:39.350Z,28.60
2022-08-19T18:35:13.501Z,28.70
2022-08-19T18:37:43.675Z,28.74
2022-08-19T18:40:36.065Z,28.70
2022-08-19T18:43:04.772Z,28.80
2022-08-19T18:45:51.599Z,28.80
2022-08-19T18:48:38.140Z,28.80
2022-08-19T18:51:07.143Z,28.78
2022-08-19T18:53:38.691Z,28.60
2022-08-19T18:56:10.066Z,28.60
2022-08-19T18:58:42.207Z,28.66
2022-08-19T19:01:17.886Z,28.60
2022-08-19T19:03:50.825Z,28.50
2022-08-19T19:06:35.850Z,28.40
2022-08-19T19:09:05.744Z,28.40
2022-08-19T19:11:44.129Z,28.30
2022-08-19T19:14:32.849Z,28.30
2022-08-19T19:17:09.343Z,28.30
2022-08-19T19:19:42.463Z,28.20
2022-08-19T19:22:16.959Z,28.18
2022-08-19T19:24:44.832Z,28.10
2022-08-19T19:27:15.690Z,28.00
2022-08-19T19:29:45.021Z,28.00
2022-08-19T19:32:21.658Z,27.90
2022-08-19T19:34:50.290Z,27.80
2022-08-19T19:37:19.197Z,27.80
2022-08-19T19:39:48.176Z,27.80
2022-08-19T19:42:21.481Z,27.80
2022-08-19T19:44:52.689Z,27.72
2022-08-19T19:47:21.652Z,27.62
2022-08-19T19:52:40.848Z,27.60
2022-08-19T19:55:15.650Z,27.54
2022-08-19T19:57:46.509Z,27.50
2022-08-19T20:00:18.802Z,27.40
2022-08-19T20:02:50.303Z,27.30
2022-08-19T20:05:21.446Z,27.30
2022-08-19T20:08:10.307Z,27.20
2022-08-19T20:10:39.094Z,27.10
2022-08-19T20:13:07.913Z,27.00
2022-08-19T20:15:40.374Z,27.00
2022-08-19T20:18:13.377Z,27.00
2022-08-19T20:20:43.092Z,26.90
2022-08-19T20:23:10.992Z,26.98
2022-08-19T20:25:39.611Z,26.90
2022-08-19T20:28:08.451Z,26.90
2022-08-19T20:30:39.563Z,26.80
2022-08-19T20:33:14.643Z,26.80
2022-08-19T20:35:44.040Z,26.76
2022-08-19T20:38:12.481Z,26.70
2022-08-19T20:40:41.242Z,26.60
2022-08-19T20:43:15.051Z,26.60
2022-08-19T20:45:43.098Z,26.60
2022-08-19T20:48:12.525Z,26.70
2022-08-19T20:50:40.835Z,26.60
2022-08-19T20:53:16.501Z,26.60
2022-08-19T20:55:49.142Z,26.66
2022-08-19T20:58:22.330Z,26.60
2022-08-19T21:00:54.242Z,26.60
2022-08-19T21:03:27.275Z,26.50
2022-08-19T21:05:56.926Z,26.56
2022-08-19T21:08:25.859Z,26.50
2022-08-19T21:10:58.782Z,26.40
2022-08-19T21:13:26.705Z,26.40
2022-08-19T21:15:54.767Z,26.30
2022-08-19T21:18:26.728Z,26.20
2022-08-19T21:20:56.007Z,26.28
2022-08-19T21:23:28.465Z,26.30
2022-08-19T21:25:59.613Z,26.22
2022-08-19T21:28:34.296Z,26.20
2022-08-19T21:31:07.006Z,26.22
2022-08-19T21:33:34.857Z,26.30
2022-08-19T21:36:04.042Z,26.22
2022-08-19T21:38:32.074Z,26.20
2022-08-19T21:41:05.714Z,26.20
2022-08-19T21:43:36.986Z,26.10
2022-08-19T21:46:06.145Z,26.00
2022-08-19T21:48:34.110Z,26.08
2022-08-19T21:51:02.203Z,26.00
2022-08-19T21:53:34.152Z,26.00
2022-08-19T21:56:06.581Z,26.00
2022-08-19T21:58:36.531Z,25.90
2022-08-19T22:01:07.755Z,25.78
2022-08-19T22:03:38.283Z,25.80
2022-08-19T22:06:07.169Z,25.80
2022-08-19T22:08:36.273Z,25.80
2022-08-19T22:11:04.672Z,25.78
2022-08-19T22:13:40.590Z,25.70
2022-08-19T22:16:09.997Z,25.56
2022-08-19T22:18:38.187Z,25.50
2022-08-19T22:21:11.210Z,25.40
2022-08-19T22:23:42.142Z,25.30
2022-08-19T22:26:12.444Z,25.30
2022-08-19T22:28:41.609Z,25.20
2022-08-19T22:31:10.638Z,25.20
2022-08-19T22:33:39.245Z,25.10
2022-08-19T22:36:08.000Z,25.10
2022-08-19T22:38:37.439Z,25.10
2022-08-19T22:41:07.604Z,25.04
2022-08-19T22:43:37.562Z,25.00
2022-08-19T22:46:06.574Z,25.00
2022-08-19T22:48:47.178Z,25.00
2022-08-19T22:51:34.323Z,24.90
2022-08-19T22:54:02.914Z,24.90
2022-08-19T22:56:31.015Z,24.90
2022-08-19T22:58:58.939Z,24.90
2022-08-19T23:01:30.575Z,24.90
2022-08-19T23:04:00.092Z,24.84
2022-08-19T23:06:34.536Z,24.82
2022-08-19T23:09:07.530Z,24.80
2022-08-19T23:11:42.122Z,24.80
2022-08-19T23:14:12.549Z,24.80
2022-08-19T23:16:41.941Z,24.80
2022-08-19T23:19:11.019Z,24.80
2022-08-19T23:21:41.481Z,24.80
2022-08-19T23:24:11.426Z,24.80
2022-08-19T23:26:59.810Z,24.80
2022-08-19T23:29:46.148Z,24.80
2022-08-19T23:32:18.627Z,24.80
2022-08-19T23:34:46.823Z,24.80
2022-08-19T23:37:15.850Z,24.94
2022-08-19T23:39:45.136Z,25.02
2022-08-19T23:42:13.933Z,25.20
2022-08-19T23:44:51.297Z,25.38
2022-08-19T23:47:21.767Z,25.30
2022-08-19T23:49:50.726Z,25.40
2022-08-19T23:52:19.214Z,25.48
2022-08-19T23:54:47.115Z,25.50
2022-08-19T23:57:15.104Z,25.44
2022-08-19T23:59:45.439Z,25.40
